Time;durP1;ratioP1;P1;durP2;ratioP2;P2;SDS_P1;SDS_P2;PMS_P1;PMS_P2;Temp;Humidity;BMP_temperature;BMP_pressure;BME280_temperature;BME280_humidity;BME280_pressure;Samples;Min_cycle;Max_cycle;Signal;HPM_P1;HPM_P2
2022/04/06 00:01:37;;;;;;;27.20;14.13;;;;;;;;;;4970193;28;20047;-71
2022/04/06 00:04:03;;;;;;;24.20;14.07;;;;;;;;;;4973855;28;20046;-72
2022/04/06 00:06:30;;;;;;;26.88;14.35;;;;;;;;;;4971178;28;20047;-72
2022/04/06 00:08:56;;;;;;;29.13;14.70;;;;;;;;;;4974959;28;20051;-72
2022/04/06 00:11:22;;;;;;;30.00;14.40;;;;;;;;;;4974860;28;20043;-71
2022/04/06 00:13:48;;;;;;;28.60;13.57;;;;;;;;;;4976664;28;20047;-72
2022/04/06 00:16:14;;;;;;;37.58;15.25;;;;;;;;;;4970308;28;20053;-71
2022/04/06 00:18:40;;;;;;;29.15;14.73;;;;;;;;;;4974268;28;20093;-71
2022/04/06 00:21:06;;;;;;;31.63;15.13;;;;;;;;;;4974220;28;20046;-71
2022/04/06 00:23:32;;;;;;;29.25;15.38;;;;;;;;;;4972951;28;20138;-71
2022/04/06 00:25:58;;;;;;;30.20;15.85;;;;;;;;;;4975090;28;20413;-72
2022/04/06 00:28:24;;;;;;;34.17;15.73;;;;;;;;;;4975632;28;20046;-72
2022/04/06 00:30:50;;;;;;;33.42;16.60;;;;;;;;;;4974523;28;20130;-71
2022/04/06 00:33:16;;;;;;;30.00;15.98;;;;;;;;;;4975059;28;20119;-71
2022/04/06 00:35:42;;;;;;;32.50;15.27;;;;;;;;;;4974662;28;20513;-72
2022/04/06 00:38:09;;;;;;;30.73;16.63;;;;;;;;;;4973531;28;20458;-72
2022/04/06 00:40:35;;;;;;;32.25;17.02;;;;;;;;;;4974896;28;20534;-71
2022/04/06 00:43:06;;;;;;;29.35;15.85;;;;;;;;;;4976339;28;20097;-72
2022/04/06 00:45:32;;;;;;;34.80;17.58;;;;;;;;;;4975883;28;20046;-71
2022/04/06 00:47:59;;;;;;;33.78;16.23;;;;;;;;;;4942013;28;20130;-71
2022/04/06 00:50:25;;;;;;;31.75;16.10;;;;;;;;;;4973760;28;20115;-71
2022/04/06 00:52:57;;;;;;;31.30;16.95;;;;;;;;;;4965608;28;20455;-71
2022/04/06 00:55:27;;;;;;;28.95;17.40;;;;;;;;;;4957016;28;20046;-72
2022/04/06 00:57:53;;;;;;;29.85;16.52;;;;;;;;;;4973509;28;20046;-71
2022/04/06 01:00:19;;;;;;;33.08;17.55;;;;;;;;;;4970684;28;20050;-71
2022/04/06 01:02:45;;;;;;;30.13;18.60;;;;;;;;;;4972133;28;20054;-71
2022/04/06 01:05:13;;;;;;;34.95;16.88;;;;;;;;;;4971316;28;20039;-72
2022/04/06 01:07:39;;;;;;;32.80;17.20;;;;;;;;;;4956878;28;20055;-72
2022/04/06 01:10:05;;;;;;;28.77;15.93;;;;;;;;;;4973371;28;20111;-72
2022/04/06 01:12:34;;;;;;;30.50;18.08;;;;;;;;;;4974916;28;20050;-71
2022/04/06 01:15:00;;;;;;;31.95;16.75;;;;;;;;;;4974617;28;20135;-71
2022/04/06 01:17:32;;;;;;;33.92;16.85;;;;;;;;;;4972511;28;20039;-71
2022/04/06 01:20:00;;;;;;;31.48;15.45;;;;;;;;;;4968150;28;20054;-71
2022/04/06 01:22:26;;;;;;;31.85;17.00;;;;;;;;;;4970324;28;20050;-72
2022/04/06 01:24:52;;;;;;;35.65;17.45;;;;;;;;;;4974573;28;20053;-72
2022/04/06 01:27:18;;;;;;;29.63;14.52;;;;;;;;;;4974425;28;20051;-71
2022/04/06 01:29:45;;;;;;;31.10;15.25;;;;;;;;;;4973913;28;20046;-72
2022/04/06 01:32:12;;;;;;;33.58;15.48;;;;;;;;;;4974212;28;20101;-72
2022/04/06 01:34:39;;;;;;;28.00;15.43;;;;;;;;;;4970767;28;20090;-72
2022/04/06 01:37:06;;;;;;;29.42;14.18;;;;;;;;;;4971042;28;20070;-72
2022/04/06 01:39:32;;;;;;;31.67;15.02;;;;;;;;;;4973548;28;20411;-72
2022/04/06 01:41:58;;;;;;;32.88;14.85;;;;;;;;;;4974858;28;20034;-71
2022/04/06 01:44:24;;;;;;;28.63;13.57;;;;;;;;;;4973702;28;20093;-72
2022/04/06 01:46:50;;;;;;;26.98;14.93;;;;;;;;;;4974259;28;20043;-72
2022/04/06 01:52:14;;;;;;;29.75;14.90;;;;;;;;;;4973805;28;20059;-71
2022/04/06 01:54:41;;;;;;;32.00;14.60;;;;;;;;;;4975128;28;20066;-72
2022/04/06 01:57:07;;;;;;;27.90;13.15;;;;;;;;;;4972953;28;20093;-71
2022/04/06 01:59:33;;;;;;;25.50;13.63;;;;;;;;;;4973016;28;20089;-71
2022/04/06 02:01:59;;;;;;;28.88;12.77;;;;;;;;;;4973701;28;20053;-71
2022/04/06 02:04:25;;;;;;;23.77;12.38;;;;;;;;;;4972842;28;20121;-72
2022/04/06 02:06:51;;;;;;;29.50;12.43;;;;;;;;;;4971324;28;20538;-71
2022/04/06 02:09:18;;;;;;;28.00;11.75;;;;;;;;;;4972520;28;20031;-72
2022/04/06 02:11:44;;;;;;;24.40;11.60;;;;;;;;;;4973697;28;20071;-71
2022/04/06 02:14:10;;;;;;;29.80;11.63;;;;;;;;;;4973696;28;20035;-71
2022/04/06 02:16:37;;;;;;;22.17;11.48;;;;;;;;;;4974201;28;20054;-71
2022/04/06 02:19:03;;;;;;;30.25;12.10;;;;;;;;;;4974106;28;20043;-72
2022/04/06 02:21:30;;;;;;;27.83;11.25;;;;;;;;;;4933952;29;20055;-72
2022/04/06 02:23:56;;;;;;;24.45;12.05;;;;;;;;;;4955055;28;20398;-71
2022/04/06 02:26:22;;;;;;;25.35;11.27;;;;;;;;;;4937141;29;20043;-72
2022/04/06 02:28:48;;;;;;;26.30;10.85;;;;;;;;;;4954234;29;20110;-71
2022/04/06 02:31:14;;;;;;;27.63;11.50;;;;;;;;;;4953958;29;20123;-72
2022/04/06 02:33:40;;;;;;;20.92;10.10;;;;;;;;;;4953038;29;20384;-72
2022/04/06 02:36:06;;;;;;;22.02;9.75;;;;;;;;;;4952783;29;20098;-71
2022/04/06 02:38:32;;;;;;;18.92;9.57;;;;;;;;;;4954076;29;20491;-71
2022/04/06 02:40:58;;;;;;;25.02;9.45;;;;;;;;;;4955980;28;20051;-72
2022/04/06 02:43:25;;;;;;;26.40;10.23;;;;;;;;;;4957497;29;20051;-71
2022/04/06 02:45:51;;;;;;;20.55;9.35;;;;;;;;;;4957849;29;20051;-73
2022/04/06 02:48:17;;;;;;;24.58;9.15;;;;;;;;;;4940302;29;20047;-72
2022/04/06 02:50:43;;;;;;;18.55;8.63;;;;;;;;;;4959224;29;20047;-72
2022/04/06 02:53:09;;;;;;;21.98;8.75;;;;;;;;;;4958869;29;20043;-71
2022/04/06 02:55:35;;;;;;;22.42;8.10;;;;;;;;;;4958055;28;20106;-72
2022/04/06 02:58:01;;;;;;;20.45;7.68;;;;;;;;;;4955882;29;20398;-72
2022/04/06 03:00:27;;;;;;;22.83;8.20;;;;;;;;;;4957479;29;20047;-72
2022/04/06 03:02:52;;;;;;;21.60;8.23;;;;;;;;;;4940866;29;20108;-71
2022/04/06 03:05:19;;;;;;;20.17;7.70;;;;;;;;;;4956338;29;20043;-72
2022/04/06 03:07:45;;;;;;;21.00;8.70;;;;;;;;;;4940012;29;20411;-72
2022/04/06 03:10:10;;;;;;;20.65;8.93;;;;;;;;;;4957803;29;20035;-72
2022/04/06 03:12:37;;;;;;;24.55;9.00;;;;;;;;;;4957807;29;20054;-71
2022/04/06 03:15:03;;;;;;;20.35;8.25;;;;;;;;;;4957051;29;20043;-71
2022/04/06 03:17:29;;;;;;;27.45;8.32;;;;;;;;;;4957748;29;20043;-72
2022/04/06 03:19:55;;;;;;;21.50;8.55;;;;;;;;;;4963497;28;20059;-71
2022/04/06 03:22:21;;;;;;;30.05;8.57;;;;;;;;;;4974961;28;20051;-72
2022/04/06 03:24:47;;;;;;;24.33;8.60;;;;;;;;;;4976065;28;20046;-72
2022/04/06 03:27:14;;;;;;;23.30;8.55;;;;;;;;;;4976659;28;20046;-72
2022/04/06 03:29:40;;;;;;;24.73;8.27;;;;;;;;;;4975274;28;20043;-71
2022/04/06 03:32:09;;;;;;;18.67;7.80;;;;;;;;;;4974552;28;20482;-71
2022/04/06 03:34:36;;;;;;;28.77;9.07;;;;;;;;;;4977398;28;20042;-71
2022/04/06 03:37:02;;;;;;;27.38;9.13;;;;;;;;;;4958277;28;20049;-71
2022/04/06 03:39:28;;;;;;;27.35;9.48;;;;;;;;;;4974852;28;20077;-71
2022/04/06 03:41:54;;;;;;;28.42;9.50;;;;;;;;;;4977043;28;20047;-73
2022/04/06 03:44:20;;;;;;;25.88;9.77;;;;;;;;;;4976831;28;20047;-71
2022/04/06 03:46:46;;;;;;;24.20;9.63;;;;;;;;;;4977718;28;20070;-71
2022/04/06 03:49:12;;;;;;;31.40;10.10;;;;;;;;;;4976025;28;20043;-71
2022/04/06 03:51:38;;;;;;;29.25;11.48;;;;;;;;;;4976569;28;20500;-72
2022/04/06 03:54:04;;;;;;;28.27;11.35;;;;;;;;;;4958501;28;20057;-71
2022/04/06 03:56:30;;;;;;;29.55;11.75;;;;;;;;;;4973919;28;20384;-71
2022/04/06 03:58:56;;;;;;;28.02;12.20;;;;;;;;;;4974822;28;20129;-71
2022/04/06 04:01:22;;;;;;;28.67;12.32;;;;;;;;;;4975306;28;20494;-73
2022/04/06 04:03:48;;;;;;;31.75;12.43;;;;;;;;;;4969639;28;20053;-71
2022/04/06 04:06:14;;;;;;;28.00;11.68;;;;;;;;;;4974177;28;20498;-72
2022/04/06 04:08:41;;;;;;;26.00;12.20;;;;;;;;;;4976170;28;20096;-71
2022/04/06 04:11:08;;;;;;;28.45;12.57;;;;;;;;;;4974386;28;20050;-71
2022/04/06 04:13:34;;;;;;;31.70;11.80;;;;;;;;;;4975440;28;20569;-72
2022/04/06 04:16:01;;;;;;;30.98;12.85;;;;;;;;;;4975680;28;20046;-71
2022/04/06 04:18:27;;;;;;;31.77;13.40;;;;;;;;;;4975967;28;20066;-73
2022/04/06 04:21:32;;;;;;;29.25;12.77;;;;;;;;;;4972227;28;20398;-72
2022/04/06 04:23:38;;;;;;;27.23;13.25;;;;;;;;;;4976491;28;20069;-71
2022/04/06 04:26:04;;;;;;;31.33;13.48;;;;;;;;;;4975857;28;20478;-71
2022/04/06 04:28:30;;;;;;;31.90;12.75;;;;;;;;;;4975600;28;20189;-72
2022/04/06 04:30:56;;;;;;;31.58;13.45;;;;;;;;;;4973970;28;20043;-72
2022/04/06 04:33:22;;;;;;;34.28;13.38;;;;;;;;;;4975935;28;20117;-71
2022/04/06 04:35:49;;;;;;;26.35;12.98;;;;;;;;;;4956774;28;20050;-71
2022/04/06 04:38:15;;;;;;;29.15;13.07;;;;;;;;;;4975245;28;20074;-71
2022/04/06 04:40:41;;;;;;;30.35;13.55;;;;;;;;;;4972789;28;20105;-72
2022/04/06 04:43:07;;;;;;;26.73;11.73;;;;;;;;;;4976181;28;20058;-73
2022/04/06 04:45:33;;;;;;;25.63;11.25;;;;;;;;;;4975191;28;20047;-72
2022/04/06 04:47:59;;;;;;;28.50;11.68;;;;;;;;;;4976171;28;20482;-72
2022/04/06 04:50:25;;;;;;;23.52;10.70;;;;;;;;;;4974904;28;20097;-73
2022/04/06 04:52:51;;;;;;;27.17;11.52;;;;;;;;;;4958094;28;20047;-71
2022/04/06 04:55:18;;;;;;;21.30;10.40;;;;;;;;;;4974656;28;20525;-72
2022/04/06 04:57:44;;;;;;;23.27;10.63;;;;;;;;;;4974815;28;20449;-72
2022/04/06 05:00:10;;;;;;;24.65;10.40;;;;;;;;;;4958000;28;20133;-71
2022/04/06 05:02:36;;;;;;;33.80;11.60;;;;;;;;;;4973962;28;20053;-72
2022/04/06 05:05:03;;;;;;;22.48;9.95;;;;;;;;;;4973383;28;20050;-71
2022/04/06 05:07:29;;;;;;;25.65;10.13;;;;;;;;;;4941231;28;20082;-72
2022/04/06 05:09:55;;;;;;;23.60;10.63;;;;;;;;;;4974749;28;20113;-71
2022/04/06 05:12:21;;;;;;;18.58;8.85;;;;;;;;;;4974038;28;20375;-71
2022/04/06 05:14:47;;;;;;;23.15;9.43;;;;;;;;;;4940914;28;20042;-70
2022/04/06 05:17:13;;;;;;;22.20;9.63;;;;;;;;;;4974961;28;20496;-71
2022/04/06 05:19:39;;;;;;;22.92;9.30;;;;;;;;;;4974724;28;20094;-71
2022/04/06 05:22:06;;;;;;;22.02;9.55;;;;;;;;;;4973352;28;20146;-71
2022/04/06 05:24:32;;;;;;;26.42;9.93;;;;;;;;;;4974488;28;20058;-72
2022/04/06 05:27:00;;;;;;;18.85;9.10;;;;;;;;;;4974838;28;20053;-72
2022/04/06 05:29:26;;;;;;;19.75;8.50;;;;;;;;;;4955267;28;20121;-71
2022/04/06 05:31:52;;;;;;;22.70;9.10;;;;;;;;;;4975028;28;20085;-73
2022/04/06 05:34:18;;;;;;;22.63;8.98;;;;;;;;;;4957535;28;20039;-72
2022/04/06 05:36:43;;;;;;;21.52;9.23;;;;;;;;;;4974641;28;20498;-72
2022/04/06 05:39:10;;;;;;;23.23;9.10;;;;;;;;;;4974566;28;20047;-71
2022/04/06 05:41:36;;;;;;;22.25;8.80;;;;;;;;;;4975301;28;20081;-72
2022/04/06 05:44:03;;;;;;;25.67;9.05;;;;;;;;;;4969057;28;20062;-71
2022/04/06 05:46:29;;;;;;;22.38;8.60;;;;;;;;;;4974363;28;20054;-72
2022/04/06 05:48:55;;;;;;;20.77;8.52;;;;;;;;;;4974996;28;20061;-72
2022/04/06 05:51:21;;;;;;;19.42;8.32;;;;;;;;;;4944898;28;20074;-71
2022/04/06 05:53:48;;;;;;;21.42;8.02;;;;;;;;;;4974196;28;20053;-72
2022/04/06 05:56:14;;;;;;;20.27;7.65;;;;;;;;;;4974268;28;20055;-71
2022/04/06 05:58:41;;;;;;;17.35;7.13;;;;;;;;;;4972877;28;20039;-71
2022/04/06 06:01:07;;;;;;;25.55;7.60;;;;;;;;;;4973443;28;20062;-72
2022/04/06 06:03:33;;;;;;;21.98;6.90;;;;;;;;;;4972792;28;20505;-71
2022/04/06 06:05:59;;;;;;;19.58;6.22;;;;;;;;;;4969359;28;20046;-71
2022/04/06 06:08:25;;;;;;;17.63;6.28;;;;;;;;;;4973822;28;20043;-71
2022/04/06 06:10:51;;;;;;;17.58;6.40;;;;;;;;;;4974756;28;20489;-72
2022/04/06 06:13:17;;;;;;;17.92;6.35;;;;;;;;;;4974093;28;20047;-72
2022/04/06 06:15:43;;;;;;;20.13;6.00;;;;;;;;;;4974338;28;20035;-71
2022/04/06 06:18:09;;;;;;;18.58;5.70;;;;;;;;;;4979151;28;20043;-72
2022/04/06 06:20:35;;;;;;;19.30;6.03;;;;;;;;;;4977976;28;20766;-72
2022/04/06 06:23:01;;;;;;;20.48;5.75;;;;;;;;;;4976612;28;20437;-72
2022/04/06 06:25:27;;;;;;;15.63;5.95;;;;;;;;;;4960817;28;20049;-73
2022/04/06 06:27:53;;;;;;;16.77;5.20;;;;;;;;;;4978607;28;20093;-72
2022/04/06 06:30:19;;;;;;;15.23;4.60;;;;;;;;;;4977054;28;20043;-71
2022/04/06 06:32:45;;;;;;;12.75;4.47;;;;;;;;;;4977035;28;20493;-72
2022/04/06 06:35:12;;;;;;;13.77;4.65;;;;;;;;;;4978186;28;20046;-73
2022/04/06 06:37:45;;;;;;;15.65;4.40;;;;;;;;;;4977442;28;20129;-72
2022/04/06 06:40:11;;;;;;;15.70;4.10;;;;;;;;;;4976835;28;20047;-72
2022/04/06 06:42:37;;;;;;;13.27;4.07;;;;;;;;;;4958683;28;20513;-71
2022/04/06 06:45:04;;;;;;;14.68;4.03;;;;;;;;;;4972842;28;20078;-72
2022/04/06 06:47:29;;;;;;;13.65;3.70;;;;;;;;;;4977336;28;20049;-72
2022/04/06 06:49:55;;;;;;;13.00;3.60;;;;;;;;;;4959054;28;20047;-72
2022/04/06 06:52:21;;;;;;;15.95;3.22;;;;;;;;;;4959489;28;20043;-74
2022/04/06 06:54:47;;;;;;;16.80;3.55;;;;;;;;;;4975142;28;20133;-72
2022/04/06 06:57:13;;;;;;;13.73;3.40;;;;;;;;;;4953656;28;20549;-72
2022/04/06 06:59:41;;;;;;;14.48;4.10;;;;;;;;;;4942601;28;20421;-73
2022/04/06 07:02:08;;;;;;;19.88;4.22;;;;;;;;;;4955553;28;20070;-72
2022/04/06 07:04:34;;;;;;;14.38;3.60;;;;;;;;;;4972710;28;20042;-72
2022/04/06 07:07:00;;;;;;;13.13;3.47;;;;;;;;;;4976755;28;20043;-73
2022/04/06 07:09:26;;;;;;;12.48;3.15;;;;;;;;;;4975565;28;20039;-71
2022/04/06 07:11:52;;;;;;;14.75;4.13;;;;;;;;;;4971909;28;20077;-71
2022/04/06 07:14:18;;;;;;;18.88;3.88;;;;;;;;;;4960230;28;20470;-71
2022/04/06 07:16:44;;;;;;;11.85;3.90;;;;;;;;;;4977378;28;20050;-72
2022/04/06 07:19:10;;;;;;;17.25;4.47;;;;;;;;;;4977929;28;21456;-72
2022/04/06 07:21:36;;;;;;;13.15;3.65;;;;;;;;;;4960751;28;20122;-70
2022/04/06 07:24:03;;;;;;;14.13;3.95;;;;;;;;;;4959023;29;20109;-71
2022/04/06 07:26:29;;;;;;;15.32;3.83;;;;;;;;;;4949816;28;20085;-72
2022/04/06 07:28:55;;;;;;;12.95;3.65;;;;;;;;;;4961861;28;20047;-71
2022/04/06 07:31:21;;;;;;;13.73;3.92;;;;;;;;;;4975398;28;20502;-71
2022/04/06 07:33:47;;;;;;;12.50;3.60;;;;;;;;;;4978295;28;20413;-72
2022/04/06 07:36:13;;;;;;;14.93;4.35;;;;;;;;;;4972997;28;20044;-71
2022/04/06 07:38:39;;;;;;;14.10;3.60;;;;;;;;;;4975740;28;20050;-72
2022/04/06 07:41:05;;;;;;;14.65;3.72;;;;;;;;;;4975065;28;20057;-72
2022/04/06 07:43:31;;;;;;;12.68;3.33;;;;;;;;;;4977611;28;20051;-72
2022/04/06 07:45:57;;;;;;;14.30;3.95;;;;;;;;;;4971244;28;20409;-71
2022/04/06 07:48:26;;;;;;;16.48;4.95;;;;;;;;;;4969911;28;20047;-72
2022/04/06 07:50:52;;;;;;;14.43;4.30;;;;;;;;;;4973714;28;20097;-71
2022/04/06 07:53:18;;;;;;;13.48;3.78;;;;;;;;;;4974700;28;20055;-72
2022/04/06 07:55:46;;;;;;;18.67;4.88;;;;;;;;;;4975512;28;20782;-72
2022/04/06 07:58:13;;;;;;;15.70;4.35;;;;;;;;;;4970939;28;20130;-71
2022/04/06 08:00:39;;;;;;;15.45;4.25;;;;;;;;;;4958201;28;20557;-72
2022/04/06 08:03:05;;;;;;;11.55;4.00;;;;;;;;;;4965355;28;20050;-72
2022/04/06 08:05:31;;;;;;;15.18;4.80;;;;;;;;;;4951854;28;20042;-72
2022/04/06 08:07:57;;;;;;;16.27;4.68;;;;;;;;;;4977199;28;20501;-72
2022/04/06 08:10:23;;;;;;;14.40;4.82;;;;;;;;;;4976111;28;20500;-71
2022/04/06 08:12:49;;;;;;;15.20;4.53;;;;;;;;;;4973832;28;20133;-72
2022/04/06 08:15:15;;;;;;;16.75;5.55;;;;;;;;;;4975751;28;20046;-72
2022/04/06 08:17:42;;;;;;;13.48;4.55;;;;;;;;;;4976462;28;20470;-72
2022/04/06 08:20:09;;;;;;;15.13;5.90;;;;;;;;;;4964807;28;20055;-73
2022/04/06 08:22:36;;;;;;;13.73;5.28;;;;;;;;;;4956382;28;20105;-71
2022/04/06 08:25:02;;;;;;;13.60;5.40;;;;;;;;;;4967617;28;20047;-71
2022/04/06 08:27:28;;;;;;;17.55;5.50;;;;;;;;;;4976200;28;20039;-72
2022/04/06 08:29:55;;;;;;;15.88;5.15;;;;;;;;;;4955212;28;20441;-72
2022/04/06 08:32:21;;;;;;;12.93;5.38;;;;;;;;;;4968225;28;20034;-72
2022/04/06 08:34:47;;;;;;;16.83;5.75;;;;;;;;;;4975098;28;20074;-73
2022/04/06 08:37:13;;;;;;;15.13;5.55;;;;;;;;;;4973786;28;20062;-72
2022/04/06 08:39:40;;;;;;;19.58;6.32;;;;;;;;;;4975531;28;20097;-73
2022/04/06 08:42:06;;;;;;;14.38;6.40;;;;;;;;;;4975195;28;20046;-72
2022/04/06 08:44:32;;;;;;;16.00;6.20;;;;;;;;;;4965425;28;20051;-71
2022/04/06 08:47:03;;;;;;;17.30;6.25;;;;;;;;;;4967539;28;20039;-71
2022/04/06 08:49:30;;;;;;;17.00;7.57;;;;;;;;;;4958377;28;20039;-73
2022/04/06 08:51:56;;;;;;;17.75;7.43;;;;;;;;;;4974390;28;20035;-72
2022/04/06 08:54:25;;;;;;;14.32;6.03;;;;;;;;;;4969146;28;20118;-72
2022/04/06 08:56:51;;;;;;;15.10;6.30;;;;;;;;;;4974401;28;20078;-72
2022/04/06 08:59:17;;;;;;;16.45;6.55;;;;;;;;;;4972257;28;20042;-72
2022/04/06 09:01:43;;;;;;;15.45;6.75;;;;;;;;;;4957241;28;20062;-72
2022/04/06 09:04:10;;;;;;;12.98;6.50;;;;;;;;;;4975426;28;20055;-72
2022/04/06 09:06:40;;;;;;;18.92;7.30;;;;;;;;;;4974711;28;20478;-72
2022/04/06 09:09:06;;;;;;;18.15;6.43;;;;;;;;;;4975527;28;20042;-72
2022/04/06 09:11:40;;;;;;;18.27;6.68;;;;;;;;;;4973159;28;20050;-71
2022/04/06 09:14:06;;;;;;;13.27;6.32;;;;;;;;;;4946006;28;20043;-76
2022/04/06 09:16:32;;;;;;;13.55;6.70;;;;;;;;;;4947461;28;20101;-72
2022/04/06 09:19:07;;;;;;;16.25;7.22;;;;;;;;;;4968642;28;20061;-73
2022/04/06 09:21:38;;;;;;;18.25;6.38;;;;;;;;;;4957128;28;20050;-72
2022/04/06 09:24:04;;;;;;;17.95;6.35;;;;;;;;;;4975218;28;20066;-73
2022/04/06 09:26:32;;;;;;;16.25;6.80;;;;;;;;;;4974851;28;20054;-72
2022/04/06 09:28:58;;;;;;;14.55;6.60;;;;;;;;;;4956860;28;20500;-72
2022/04/06 09:31:24;;;;;;;17.92;7.30;;;;;;;;;;4966949;28;20118;-72
2022/04/06 09:33:56;;;;;;;19.48;6.95;;;;;;;;;;4960158;28;20039;-71
2022/04/06 09:36:22;;;;;;;16.77;7.90;;;;;;;;;;4956537;28;20128;-72
2022/04/06 09:38:49;;;;;;;18.13;7.60;;;;;;;;;;4972058;28;20149;-72
2022/04/06 09:41:16;;;;;;;14.10;6.50;;;;;;;;;;4974369;28;20055;-72
2022/04/06 09:43:46;;;;;;;17.95;6.35;;;;;;;;;;4956449;28;20054;-73
2022/04/06 09:49:08;;;;;;;13.43;5.30;;;;;;;;;;4965905;28;20391;-71
2022/04/06 09:51:34;;;;;;;12.93;4.97;;;;;;;;;;4960442;28;20118;-73
2022/04/06 09:54:02;;;;;;;13.98;4.90;;;;;;;;;;4971641;28;20054;-72
2022/04/06 09:56:30;;;;;;;17.08;5.30;;;;;;;;;;4973255;28;20054;-74
2022/04/06 09:58:57;;;;;;;13.25;4.80;;;;;;;;;;4974512;28;20375;-72
2022/04/06 10:01:23;;;;;;;17.23;5.05;;;;;;;;;;4969704;28;20407;-73
2022/04/06 10:03:50;;;;;;;14.93;5.93;;;;;;;;;;4969480;28;20705;-71
2022/04/06 10:06:17;;;;;;;13.90;5.20;;;;;;;;;;4973602;28;20047;-72
2022/04/06 10:08:43;;;;;;;13.68;5.20;;;;;;;;;;4965236;28;20066;-72
2022/04/06 10:11:10;;;;;;;16.08;4.38;;;;;;;;;;4968800;28;20509;-73
2022/04/06 10:13:36;;;;;;;15.00;4.82;;;;;;;;;;4974585;28;20101;-73
2022/04/06 10:16:03;;;;;;;12.35;5.25;;;;;;;;;;4974671;28;20054;-72
2022/04/06 10:18:31;;;;;;;13.27;4.55;;;;;;;;;;4974610;28;20517;-72
2022/04/06 10:21:00;;;;;;;14.18;4.78;;;;;;;;;;4974604;28;20082;-71
2022/04/06 10:23:35;;;;;;;12.82;5.00;;;;;;;;;;4966429;28;20486;-72
2022/04/06 10:26:04;;;;;;;11.88;4.45;;;;;;;;;;4974598;28;20070;-72
2022/04/06 10:28:33;;;;;;;15.48;4.93;;;;;;;;;;4959530;28;20459;-72
2022/04/06 10:31:11;;;;;;;12.93;4.82;;;;;;;;;;4959248;28;20042;-71
2022/04/06 10:33:37;;;;;;;15.15;4.88;;;;;;;;;;4969302;28;20049;-72
2022/04/06 10:36:17;;;;;;;13.40;4.93;;;;;;;;;;4973724;28;20053;-72
2022/04/06 10:39:02;;;;;;;13.38;4.50;;;;;;;;;;4953340;28;20125;-72
2022/04/06 10:41:28;;;;;;;12.15;4.80;;;;;;;;;;4973628;28;20046;-71
2022/04/06 10:43:55;;;;;;;14.13;4.75;;;;;;;;;;4956585;28;20047;-70
2022/04/06 10:46:38;;;;;;;14.30;5.25;;;;;;;;;;4944888;28;20046;-72
2022/04/06 10:49:06;;;;;;;14.05;5.15;;;;;;;;;;4973911;28;20058;-72
2022/04/06 10:51:37;;;;;;;13.32;5.43;;;;;;;;;;4973898;28;20042;-72
2022/04/06 10:54:12;;;;;;;13.77;5.22;;;;;;;;;;4950273;29;20399;-72
2022/04/06 10:57:01;;;;;;;13.07;4.60;;;;;;;;;;4971768;28;20426;-72
2022/04/06 10:59:30;;;;;;;15.95;5.60;;;;;;;;;;4972306;28;20050;-71
2022/04/06 11:02:19;;;;;;;13.70;6.50;;;;;;;;;;4958942;28;20054;-72
2022/04/06 11:04:46;;;;;;;16.08;6.05;;;;;;;;;;4971340;28;20031;-71
2022/04/06 11:07:15;;;;;;;22.38;7.68;;;;;;;;;;4976417;28;20057;-72
2022/04/06 11:12:30;;;;;;;14.15;6.30;;;;;;;;;;4963252;28;20134;-71
2022/04/06 11:14:59;;;;;;;13.82;5.97;;;;;;;;;;4970777;28;20070;-72
2022/04/06 11:17:32;;;;;;;13.93;6.00;;;;;;;;;;4975100;28;20047;-72
2022/04/06 11:20:08;;;;;;;17.40;6.63;;;;;;;;;;4970017;28;20066;-73
2022/04/06 11:22:38;;;;;;;16.92;6.68;;;;;;;;;;4973410;28;20134;-71
2022/04/06 11:25:08;;;;;;;12.13;6.07;;;;;;;;;;4975734;28;20051;-73
2022/04/06 11:27:35;;;;;;;15.90;6.35;;;;;;;;;;4968916;28;20090;-71
2022/04/06 11:30:02;;;;;;;15.43;6.63;;;;;;;;;;4974203;28;20054;-73
2022/04/06 11:32:29;;;;;;;18.55;7.50;;;;;;;;;;4973470;28;20054;-72
2022/04/06 11:34:59;;;;;;;16.50;6.97;;;;;;;;;;4957151;28;20055;-72
2022/04/06 11:37:25;;;;;;;16.30;7.13;;;;;;;;;;4974601;28;20589;-72
2022/04/06 11:39:56;;;;;;;15.43;7.65;;;;;;;;;;4957249;28;20048;-72
2022/04/06 11:42:22;;;;;;;16.20;7.20;;;;;;;;;;4974341;28;20050;-72
2022/04/06 11:44:49;;;;;;;17.20;7.47;;;;;;;;;;4976327;28;20074;-72
2022/04/06 11:47:15;;;;;;;17.05;7.97;;;;;;;;;;4976171;28;20054;-72
2022/04/06 11:49:41;;;;;;;15.75;7.72;;;;;;;;;;4976206;28;20079;-72
2022/04/06 11:52:07;;;;;;;15.93;8.00;;;;;;;;;;4976695;28;20051;-73
2022/04/06 11:54:33;;;;;;;17.73;7.53;;;;;;;;;;4976260;28;20051;-72
2022/04/06 11:56:59;;;;;;;18.98;7.93;;;;;;;;;;4958654;28;20467;-72
2022/04/06 11:59:31;;;;;;;18.83;8.15;;;;;;;;;;4975707;28;20049;-72
2022/04/06 12:01:57;;;;;;;20.20;7.97;;;;;;;;;;4976295;28;20047;-73
2022/04/06 12:04:24;;;;;;;13.57;7.10;;;;;;;;;;4976714;28;20101;-72
2022/04/06 12:06:54;;;;;;;14.77;7.38;;;;;;;;;;4976471;28;20042;-73
2022/04/06 12:09:20;;;;;;;13.43;7.78;;;;;;;;;;4959540;28;20047;-71
2022/04/06 12:11:53;;;;;;;14.88;8.02;;;;;;;;;;4959084;28;20406;-72
2022/04/06 12:14:19;;;;;;;14.25;8.20;;;;;;;;;;4975108;28;20061;-72
2022/04/06 12:16:49;;;;;;;15.18;8.63;;;;;;;;;;4975954;28;20050;-73
2022/04/06 12:19:18;;;;;;;18.33;9.05;;;;;;;;;;4975563;28;20490;-72
2022/04/06 12:21:45;;;;;;;14.20;8.25;;;;;;;;;;4974914;28;20569;-74
2022/04/06 12:24:11;;;;;;;18.15;8.45;;;;;;;;;;4974318;28;20101;-72
2022/04/06 12:26:42;;;;;;;10.77;6.80;;;;;;;;;;4975918;28;20047;-72
2022/04/06 12:29:12;;;;;;;13.82;8.25;;;;;;;;;;4957931;28;20453;-71
2022/04/06 12:31:40;;;;;;;12.05;6.70;;;;;;;;;;4976163;28;20086;-72
2022/04/06 12:34:08;;;;;;;14.15;7.00;;;;;;;;;;4957441;28;20457;-73
2022/04/06 12:36:34;;;;;;;13.80;6.90;;;;;;;;;;4942483;28;20498;-73
2022/04/06 12:39:11;;;;;;;14.63;7.15;;;;;;;;;;4948641;29;20043;-72
2022/04/06 12:42:02;;;;;;;13.40;7.28;;;;;;;;;;4956500;29;20113;-71
2022/04/06 12:44:29;;;;;;;13.13;6.57;;;;;;;;;;4973522;28;20089;-73
2022/04/06 12:46:55;;;;;;;13.93;7.15;;;;;;;;;;4975516;28;20422;-72
2022/04/06 12:49:24;;;;;;;13.13;7.70;;;;;;;;;;4974542;28;20490;-71
2022/04/06 12:52:03;;;;;;;15.10;7.35;;;;;;;;;;4975461;28;20054;-72
2022/04/06 12:54:31;;;;;;;12.77;7.15;;;;;;;;;;4955439;28;20053;-71
2022/04/06 12:57:07;;;;;;;13.13;7.35;;;;;;;;;;4968440;28;20047;-72
2022/04/06 12:59:44;;;;;;;12.82;7.20;;;;;;;;;;4972494;28;20050;-72
2022/04/06 13:02:22;;;;;;;14.98;7.40;;;;;;;;;;4975197;28;20057;-72
2022/04/06 13:04:48;;;;;;;11.45;7.05;;;;;;;;;;4975083;28;20065;-71
2022/04/06 13:07:14;;;;;;;14.02;7.55;;;;;;;;;;4973605;28;20043;-71
2022/04/06 13:09:53;;;;;;;12.18;7.18;;;;;;;;;;4969896;28;20050;-72
2022/04/06 13:12:20;;;;;;;13.05;7.40;;;;;;;;;;4971948;28;20532;-72
2022/04/06 13:14:46;;;;;;;14.38;8.02;;;;;;;;;;4955815;29;20071;-72
2022/04/06 13:17:13;;;;;;;11.88;7.43;;;;;;;;;;4961345;28;20043;-73
2022/04/06 13:19:39;;;;;;;13.70;8.27;;;;;;;;;;4974289;28;20454;-72
2022/04/06 13:22:05;;;;;;;12.15;6.65;;;;;;;;;;4974860;28;20093;-72
2022/04/06 13:24:32;;;;;;;13.88;6.50;;;;;;;;;;4975128;28;20494;-72
2022/04/06 13:26:58;;;;;;;14.05;7.65;;;;;;;;;;4974500;28;20047;-73
2022/04/06 13:29:25;;;;;;;12.70;7.75;;;;;;;;;;4974960;28;20125;-73
2022/04/06 13:31:51;;;;;;;13.68;7.40;;;;;;;;;;4975173;28;20049;-74
2022/04/06 13:34:19;;;;;;;11.38;7.82;;;;;;;;;;4974673;28;20046;-73
2022/04/06 13:36:45;;;;;;;12.07;8.30;;;;;;;;;;4974180;28;20461;-73
2022/04/06 13:39:12;;;;;;;13.82;7.50;;;;;;;;;;4955617;29;20079;-73
2022/04/06 13:41:38;;;;;;;13.10;8.35;;;;;;;;;;4961360;28;20058;-72
2022/04/06 13:44:04;;;;;;;10.85;7.63;;;;;;;;;;4957421;28;20050;-72
2022/04/06 13:46:30;;;;;;;11.50;7.13;;;;;;;;;;4957449;28;20038;-72
2022/04/06 13:48:57;;;;;;;14.82;7.35;;;;;;;;;;4974256;28;20043;-73
2022/04/06 13:51:24;;;;;;;12.25;7.65;;;;;;;;;;4957129;28;20050;-70
2022/04/06 13:53:50;;;;;;;13.60;7.25;;;;;;;;;;4974306;28;20042;-72
2022/04/06 13:56:17;;;;;;;12.57;7.13;;;;;;;;;;4974439;28;20050;-72
2022/04/06 13:58:43;;;;;;;15.50;7.90;;;;;;;;;;4973990;28;20126;-71
2022/04/06 14:01:09;;;;;;;12.05;7.47;;;;;;;;;;4968954;28;20039;-72
2022/04/06 14:03:35;;;;;;;11.77;7.50;;;;;;;;;;4972897;28;20394;-72
2022/04/06 14:06:01;;;;;;;10.90;7.13;;;;;;;;;;4957020;28;20054;-72
2022/04/06 14:08:27;;;;;;;11.38;7.32;;;;;;;;;;4972461;28;20384;-72
2022/04/06 14:10:54;;;;;;;11.27;7.60;;;;;;;;;;4974001;28;20046;-73
2022/04/06 14:13:21;;;;;;;12.60;7.68;;;;;;;;;;4955823;28;20112;-72
2022/04/06 14:15:47;;;;;;;9.25;7.15;;;;;;;;;;4950890;28;20055;-72
2022/04/06 14:18:14;;;;;;;10.68;7.20;;;;;;;;;;4972121;28;20057;-72
2022/04/06 14:20:40;;;;;;;12.73;7.53;;;;;;;;;;4973681;28;20086;-72
2022/04/06 14:23:06;;;;;;;9.98;6.82;;;;;;;;;;4956744;28;20062;-71
2022/04/06 14:25:32;;;;;;;13.65;9.38;;;;;;;;;;4969927;28;20171;-72
2022/04/06 14:27:59;;;;;;;11.93;8.93;;;;;;;;;;4957079;28;20066;-71
2022/04/06 14:30:25;;;;;;;11.13;9.23;;;;;;;;;;4962300;28;20050;-72
2022/04/06 14:32:52;;;;;;;10.52;8.63;;;;;;;;;;4973926;28;20046;-72
2022/04/06 14:35:18;;;;;;;9.82;8.18;;;;;;;;;;4973469;28;20042;-72